sensor_id;sensor_type;location;lat;lon;timestamp;temperature;humidity
67165;SHT31;54093;50.014;19.984;2023-04-24T00:08:01;12.79;58.51
67165;SHT31;54093;50.014;19.984;2023-04-24T00:17:22;12.84;57.20
67165;SHT31;54093;50.014;19.984;2023-04-24T00:26:43;12.68;57.66
67165;SHT31;54093;50.014;19.984;2023-04-24T00:36:04;12.41;58.46
67165;SHT31;54093;50.014;19.984;2023-04-24T00:45:26;12.36;58.64
67165;SHT31;54093;50.014;19.984;2023-04-24T00:54:47;12.10;59.39
67165;SHT31;54093;50.014;19.984;2023-04-24T01:04:09;12.00;59.51
67165;SHT31;54093;50.014;19.984;2023-04-24T01:13:32;11.96;59.38
67165;SHT31;54093;50.014;19.984;2023-04-24T01:22:54;11.73;60.72
67165;SHT31;54093;50.014;19.984;2023-04-24T01:32:17;11.73;60.05
67165;SHT31;54093;50.014;19.984;2023-04-24T01:41:39;11.57;61.07
67165;SHT31;54093;50.014;19.984;2023-04-24T01:51:00;11.22;62.75
67165;SHT31;54093;50.014;19.984;2023-04-24T02:00:20;11.03;63.69
67165;SHT31;54093;50.014;19.984;2023-04-24T02:09:41;10.94;62.76
67165;SHT31;54093;50.014;19.984;2023-04-24T02:19:03;10.67;63.05
67165;SHT31;54093;50.014;19.984;2023-04-24T02:28:24;10.41;65.25
67165;SHT31;54093;50.014;19.984;2023-04-24T02:37:44;10.63;63.25
67165;SHT31;54093;50.014;19.984;2023-04-24T02:47:05;10.41;63.72
67165;SHT31;54093;50.014;19.984;2023-04-24T02:56:26;10.14;64.76
67165;SHT31;54093;50.014;19.984;2023-04-24T03:05:47;10.09;63.65
67165;SHT31;54093;50.014;19.984;2023-04-24T03:15:08;10.05;64.34
67165;SHT31;54093;50.014;19.984;2023-04-24T03:24:29;10.05;64.68
67165;SHT31;54093;50.014;19.984;2023-04-24T03:33:51;9.87;65.35
67165;SHT31;54093;50.014;19.984;2023-04-24T03:43:12;9.90;65.60
67165;SHT31;54093;50.014;19.984;2023-04-24T03:52:32;10.08;65.18
67165;SHT31;54093;50.014;19.984;2023-04-24T04:01:53;9.93;66.24
67165;SHT31;54093;50.014;19.984;2023-04-24T04:11:14;9.66;66.27
67165;SHT31;54093;50.014;19.984;2023-04-24T04:20:35;9.74;66.23
67165;SHT31;54093;50.014;19.984;2023-04-24T04:29:56;9.71;67.78
67165;SHT31;54093;50.014;19.984;2023-04-24T04:39:17;9.90;67.83
67165;SHT31;54093;50.014;19.984;2023-04-24T04:48:39;9.98;66.78
67165;SHT31;54093;50.014;19.984;2023-04-24T04:58:00;10.12;66.79
67165;SHT31;54093;50.014;19.984;2023-04-24T05:07:21;10.31;66.81
67165;SHT31;54093;50.014;19.984;2023-04-24T05:16:42;10.60;66.05
67165;SHT31;54093;50.014;19.984;2023-04-24T05:26:03;11.07;66.62
67165;SHT31;54093;50.014;19.984;2023-04-24T05:35:24;11.65;65.75
67165;SHT31;54093;50.014;19.984;2023-04-24T05:44:45;12.52;63.42
67165;SHT31;54093;50.014;19.984;2023-04-24T05:54:06;12.79;60.41
67165;SHT31;54093;50.014;19.984;2023-04-24T06:03:27;14.16;59.75
67165;SHT31;54093;50.014;19.984;2023-04-24T06:12:48;15.27;57.48
67165;SHT31;54093;50.014;19.984;2023-04-24T06:22:09;16.31;51.52
67165;SHT31;54093;50.014;19.984;2023-04-24T06:31:30;16.97;52.88
67165;SHT31;54093;50.014;19.984;2023-04-24T06:40:55;19.05;48.00
67165;SHT31;54093;50.014;19.984;2023-04-24T06:50:16;20.11;45.04
67165;SHT31;54093;50.014;19.984;2023-04-24T06:59:37;20.81;42.17
67165;SHT31;54093;50.014;19.984;2023-04-24T07:08:58;20.36;42.43
67165;SHT31;54093;50.014;19.984;2023-04-24T07:18:21;21.03;41.79
67165;SHT31;54093;50.014;19.984;2023-04-24T07:27:42;20.99;39.35
67165;SHT31;54093;50.014;19.984;2023-04-24T07:37:02;21.55;32.91
67165;SHT31;54093;50.014;19.984;2023-04-24T07:46:24;21.88;31.96
67165;SHT31;54093;50.014;19.984;2023-04-24T07:55:45;22.44;30.05
67165;SHT31;54093;50.014;19.984;2023-04-24T08:05:06;22.96;28.47
67165;SHT31;54093;50.014;19.984;2023-04-24T08:14:28;22.26;28.52
67165;SHT31;54093;50.014;19.984;2023-04-24T08:23:49;22.95;30.20
67165;SHT31;54093;50.014;19.984;2023-04-24T08:33:10;22.57;29.77
67165;SHT31;54093;50.014;19.984;2023-04-24T08:42:31;23.77;25.88
67165;SHT31;54093;50.014;19.984;2023-04-24T08:51:54;23.11;25.67
67165;SHT31;54093;50.014;19.984;2023-04-24T09:01:15;22.16;28.98
67165;SHT31;54093;50.014;19.984;2023-04-24T09:10:36;21.79;28.49
67165;SHT31;54093;50.014;19.984;2023-04-24T09:19:57;22.45;29.58
67165;SHT31;54093;50.014;19.984;2023-04-24T09:29:18;24.15;27.53
67165;SHT31;54093;50.014;19.984;2023-04-24T09:38:39;25.31;25.18
67165;SHT31;54093;50.014;19.984;2023-04-24T09:48:00;25.63;24.03
67165;SHT31;54093;50.014;19.984;2023-04-24T09:57:21;26.10;24.85
67165;SHT31;54093;50.014;19.984;2023-04-24T10:06:42;26.54;23.41
67165;SHT31;54093;50.014;19.984;2023-04-24T10:16:04;25.46;23.22
67165;SHT31;54093;50.014;19.984;2023-04-24T10:25:27;24.49;24.20
67165;SHT31;54093;50.014;19.984;2023-04-24T10:34:48;24.40;25.47
67165;SHT31;54093;50.014;19.984;2023-04-24T10:44:14;24.46;25.93
67165;SHT31;54093;50.014;19.984;2023-04-24T10:53:35;24.67;24.53
67165;SHT31;54093;50.014;19.984;2023-04-24T11:02:56;25.18;24.50
67165;SHT31;54093;50.014;19.984;2023-04-24T11:12:18;24.53;24.25
67165;SHT31;54093;50.014;19.984;2023-04-24T11:21:43;23.91;26.06
67165;SHT31;54093;50.014;19.984;2023-04-24T11:31:36;24.09;27.23
67165;SHT31;54093;50.014;19.984;2023-04-24T11:41:01;24.26;25.85
67165;SHT31;54093;50.014;19.984;2023-04-24T11:50:25;24.28;26.92
67165;SHT31;54093;50.014;19.984;2023-04-24T11:59:49;23.93;25.60
67165;SHT31;54093;50.014;19.984;2023-04-24T12:09:10;23.80;28.58
67165;SHT31;54093;50.014;19.984;2023-04-24T12:18:32;24.04;27.95
67165;SHT31;54093;50.014;19.984;2023-04-24T12:27:55;23.84;27.66
67165;SHT31;54093;50.014;19.984;2023-04-24T12:37:16;23.56;28.32
67165;SHT31;54093;50.014;19.984;2023-04-24T12:46:37;22.92;28.63
67165;SHT31;54093;50.014;19.984;2023-04-24T12:55:58;21.92;35.55
67165;SHT31;54093;50.014;19.984;2023-04-24T13:05:19;21.31;37.27
67165;SHT31;54093;50.014;19.984;2023-04-24T13:14:40;20.51;39.07
67165;SHT31;54093;50.014;19.984;2023-04-24T13:24:01;19.94;40.39
67165;SHT31;54093;50.014;19.984;2023-04-24T13:33:22;19.57;41.65
67165;SHT31;54093;50.014;19.984;2023-04-24T13:42:43;19.37;42.59
67165;SHT31;54093;50.014;19.984;2023-04-24T13:52:04;18.98;41.83
67165;SHT31;54093;50.014;19.984;2023-04-24T14:01:25;18.53;43.80
67165;SHT31;54093;50.014;19.984;2023-04-24T14:10:46;18.40;45.10
67165;SHT31;54093;50.014;19.984;2023-04-24T14:20:07;17.99;45.81
67165;SHT31;54093;50.014;19.984;2023-04-24T14:29:28;17.93;46.32
67165;SHT31;54093;50.014;19.984;2023-04-24T14:38:49;17.72;48.37
67165;SHT31;54093;50.014;19.984;2023-04-24T14:48:10;17.55;48.39
67165;SHT31;54093;50.014;19.984;2023-04-24T14:57:32;17.54;48.43
67165;SHT31;54093;50.014;19.984;2023-04-24T15:06:54;17.23;49.41
67165;SHT31;54093;50.014;19.984;2023-04-24T15:16:15;16.97;50.14
67165;SHT31;54093;50.014;19.984;2023-04-24T15:25:37;16.77;51.54
67165;SHT31;54093;50.014;19.984;2023-04-24T15:34:58;16.68;52.38
67165;SHT31;54093;50.014;19.984;2023-04-24T15:44:21;16.52;53.49
67165;SHT31;54093;50.014;19.984;2023-04-24T15:53:42;16.48;55.28
67165;SHT31;54093;50.014;19.984;2023-04-24T16:03:03;16.28;57.90
67165;SHT31;54093;50.014;19.984;2023-04-24T16:12:24;16.25;56.99
67165;SHT31;54093;50.014;19.984;2023-04-24T16:21:47;16.11;56.37
67165;SHT31;54093;50.014;19.984;2023-04-24T16:31:08;15.94;56.04
67165;SHT31;54093;50.014;19.984;2023-04-24T16:40:30;15.74;57.83
67165;SHT31;54093;50.014;19.984;2023-04-24T16:49:51;15.66;58.04
67165;SHT31;54093;50.014;19.984;2023-04-24T16:59:15;15.39;59.58
67165;SHT31;54093;50.014;19.984;2023-04-24T17:08:41;15.36;59.84
67165;SHT31;54093;50.014;19.984;2023-04-24T17:18:02;15.32;60.28
67165;SHT31;54093;50.014;19.984;2023-04-24T17:27:25;15.36;60.21
67165;SHT31;54093;50.014;19.984;2023-04-24T17:36:46;15.35;60.33
67165;SHT31;54093;50.014;19.984;2023-04-24T17:46:07;15.34;61.43
67165;SHT31;54093;50.014;19.984;2023-04-24T17:55:28;15.22;61.90
67165;SHT31;54093;50.014;19.984;2023-04-24T18:04:49;15.28;62.24
67165;SHT31;54093;50.014;19.984;2023-04-24T18:14:10;15.24;62.66
67165;SHT31;54093;50.014;19.984;2023-04-24T18:23:31;15.08;62.82
67165;SHT31;54093;50.014;19.984;2023-04-24T18:32:52;14.97;63.23
67165;SHT31;54093;50.014;19.984;2023-04-24T18:42:13;14.98;63.23
67165;SHT31;54093;50.014;19.984;2023-04-24T18:51:34;14.77;64.61
67165;SHT31;54093;50.014;19.984;2023-04-24T19:00:55;14.77;64.52
67165;SHT31;54093;50.014;19.984;2023-04-24T19:10:16;14.49;63.95
67165;SHT31;54093;50.014;19.984;2023-04-24T19:19:37;14.43;64.09
67165;SHT31;54093;50.014;19.984;2023-04-24T19:28:58;14.63;64.25
67165;SHT31;54093;50.014;19.984;2023-04-24T19:38:19;14.60;63.69
67165;SHT31;54093;50.014;19.984;2023-04-24T19:47:40;14.57;64.55
67165;SHT31;54093;50.014;19.984;2023-04-24T19:57:01;14.46;64.80
67165;SHT31;54093;50.014;19.984;2023-04-24T20:06:22;14.43;65.31
67165;SHT31;54093;50.014;19.984;2023-04-24T20:15:43;14.32;65.62
67165;SHT31;54093;50.014;19.984;2023-04-24T20:25:07;14.30;65.72
67165;SHT31;54093;50.014;19.984;2023-04-24T20:34:29;14.40;66.21
67165;SHT31;54093;50.014;19.984;2023-04-24T20:43:50;14.23;66.42
67165;SHT31;54093;50.014;19.984;2023-04-24T20:53:10;14.06;66.90
67165;SHT31;54093;50.014;19.984;2023-04-24T21:02:31;13.95;67.43
67165;SHT31;54093;50.014;19.984;2023-04-24T21:11:53;13.84;67.55
67165;SHT31;54093;50.014;19.984;2023-04-24T21:21:14;13.74;68.16
67165;SHT31;54093;50.014;19.984;2023-04-24T21:30:35;13.75;68.29
67165;SHT31;54093;50.014;19.984;2023-04-24T21:39:56;13.70;68.28
67165;SHT31;54093;50.014;19.984;2023-04-24T21:49:17;13.61;69.03
67165;SHT31;54093;50.014;19.984;2023-04-24T21:58:38;13.51;70.68
67165;SHT31;54093;50.014;19.984;2023-04-24T22:07:59;13.36;72.13
67165;SHT31;54093;50.014;19.984;2023-04-24T22:17:21;13.20;74.54
67165;SHT31;54093;50.014;19.984;2023-04-24T22:26:43;12.99;76.19
67165;SHT31;54093;50.014;19.984;2023-04-24T22:36:04;12.89;77.25
67165;SHT31;54093;50.014;19.984;2023-04-24T22:45:25;12.76;78.35
67165;SHT31;54093;50.014;19.984;2023-04-24T22:54:46;12.68;78.79
67165;SHT31;54093;50.014;19.984;2023-04-24T23:04:07;12.58;79.40
67165;SHT31;54093;50.014;19.984;2023-04-24T23:13:28;12.59;79.23
67165;SHT31;54093;50.014;19.984;2023-04-24T23:22:50;12.54;79.79
67165;SHT31;54093;50.014;19.984;2023-04-24T23:32:11;12.57;79.46
67165;SHT31;54093;50.014;19.984;2023-04-24T23:41:32;12.55;79.73
67165;SHT31;54093;50.014;19.984;2023-04-24T23:50:52;12.45;79.91
